This is the latest recevied weather packets stored in our database for station/object KJ4HF. If no packets are shown the sender has not sent any weather packets the latest 10 day(s).
| Time | Temp. | Humidity | Pressure | Rain* | Wind** | Luminosity | Snow |
|---|---|---|---|---|---|---|---|
| 1777894544 | 5.56° C | 91% | 1017.1 hPa | 0 mm | - | 35 W/m² | - |
| 1777891552 | 5° C | 90% | 1017.2 hPa | 0 mm | - | 12 W/m² | - |
| 1777891242 | 5° C | 91% | 1017.1 hPa | 0 mm | - | 11 W/m² | - |
| 1777889753 | 5° C | 91% | 1016.8 hPa | 0 mm | - | 0 W/m² | - |
| 1777888244 | 5.56° C | 90% | 1017.1 hPa | 0 mm | - | 0 W/m² | - |
| 1777883473 | 6.67° C | 83% | 1016.9 hPa | 0 mm | - | 0 W/m² | - |
| 1777882242 | 7.22° C | 81% | 1016.8 hPa | 0 mm | - | 0 W/m² | - |
| 1777881044 | 7.78° C | 77% | 1016.5 hPa | 0 mm | - | 0 W/m² | - |
| 1777878050 | 9.44° C | 72% | 1016.4 hPa | 0 mm | - | 0 W/m² | - |
| 1777876543 | 10.56° C | 70% | 1016.7 hPa | 0 mm | - | 0 W/m² | - |
| 1777875043 | 10.56° C | 71% | 1016.6 hPa | 0 mm | - | 0 W/m² | - |
| 1777874452 | 10° C | 72% | 1016.7 hPa | 0 mm | - | 0 W/m² | - |
| 1777873245 | 10.56° C | 70% | 1016.9 hPa | 0 mm | - | 0 W/m² | - |
| 1777872342 | 11.11° C | 68% | 1017 hPa | 0 mm | - | 0 W/m² | - |
| 1777872042 | 11.11° C | 68% | 1017 hPa | 0 mm | - | 0 W/m² | - |
| 1777871751 | 11.11° C | 67% | 1017.1 hPa | 0 mm | - | 0 W/m² | - |
| 1777871442 | 11.67° C | 66% | 1017 hPa | 0 mm | - | 0 W/m² | - |
| 1777869644 | 11.11° C | 67% | 1016.8 hPa | 0 mm | - | 0 W/m² | - |
| 1777865142 | 10.56° C | 66% | 1017.3 hPa | 0 mm | - | 0 W/m² | - |
| 1777864550 | 10° C | 67% | 1017.3 hPa | 0 mm | - | 0 W/m² | - |
| 1777864241 | 10° C | 65% | 1017.2 hPa | 0 mm | - | 0 W/m² | - |
| 1777859744 | 10.56° C | 65% | 1016.7 hPa | 0 mm | - | 0 W/m² | - |
| 1777858542 | 10.56° C | 63% | 1016.6 hPa | 0 mm | - | 0 W/m² | - |
| 1777856461 | 11.67° C | 56% | 1016.3 hPa | 0 mm | - | 0 W/m² | - |
| 1777855843 | 12.22° C | 55% | 1016.1 hPa | 0 mm | - | 0 W/m² | - |
* Rain latest hour (hover to see other rain measurements)
** Current wind speed in m/s (hover to see current wind gust speed)